LFLL/LYS METAR and TAF weather

Enter ICAO airport designator
Station Type Date Time Source
LFLL METAR 2019/02/17 16:30 UTC NOAA

LFLL 171630Z 16009KT CAVOK 16/00 Q1023 NOSIG


Station Type Date Time Source
LFLL Decoded METAR 2019/02/17 16:30 UTC NOAA

Lyon / Satolas, France (LFLL) 45-44N 005-05E 240M
Feb 17, 2019 - 11:30 AM EST / 2019.02.17 1630 UTC
Wind: from the SSE (160 degrees) at 10 MPH (9 KT):0
Visibility: greater than 7 mile(s):0
Temperature: 60 F (16 C)
Dew Point: 32 F (0 C)
Relative Humidity: 33%
Pressure (altimeter): 30.21 in. Hg (1023 hPa)
ob: LFLL 171630Z 16009KT CAVOK 16/00 Q1023 NOSIG
cycle: 16

Station Type Date Time Source
LFLL TAF 2019/02/17 12:42 UTC NOAA

TAF TAF LFLL 171100Z 1712/1818 17012KT CAVOK PROB30
TEMPO 1722/1803 BKN020


Example: see airport list